SWR17T EGKK-ESGG
Flight info
| Callsign | SWR17T |
|---|---|
| Flight time | 1h 27m |
| Altitude | 41000 |
| Route | FRANE M604 GIVPO DCT LARGA DCT SOPTO DCT AAL N607 MAKUR |
| Aircraft | A333/H-SDE3GHIJ2J3J5M1RVWXY/LB2D1 |
Departure
| Time | 2026-05-05 18:32 |
|---|---|
| Airport | London Gatwick Airport (EGKK) |
Arrival
| Time | 2026-05-05 20:00 |
|---|---|
| Airport | Göteborg Landvetter Airport (ESGG) |
| Time | Latitude | Longitude | Altitude | Speed | Heading |
|---|---|---|---|---|---|
| 2026-05-05 18:00 | 51.15200 | -0.18833 | 209 ft | 0 kts | 257° |
| 2026-05-05 18:21 | 51.15200 | -0.18831 | 208 ft | 2 kts | 257° |
| 2026-05-05 18:21 | 51.15207 | -0.18791 | 215 ft | 4 kts | 251° |
| 2026-05-05 18:21 | 51.15215 | -0.18755 | 211 ft | 4 kts | 251° |
| 2026-05-05 18:22 | 51.15229 | -0.18726 | 222 ft | 4 kts | 196° |
| 2026-05-05 18:22 | 51.15254 | -0.18722 | 218 ft | 4 kts | 170° |
| 2026-05-05 18:22 | 51.15265 | -0.18726 | 216 ft | 1 kts | 167° |
| 2026-05-05 18:22 | 51.15266 | -0.18726 | 216 ft | 0 kts | 167° |
| 2026-05-05 18:25 | 51.15253 | -0.18721 | 217 ft | 9 kts | 167° |
| 2026-05-05 18:25 | 51.15180 | -0.18700 | 214 ft | 11 kts | 177° |
| 2026-05-05 18:26 | 51.15129 | -0.18758 | 219 ft | 10 kts | 248° |
| 2026-05-05 18:26 | 51.15108 | -0.18889 | 214 ft | 14 kts | 258° |
| 2026-05-05 18:26 | 51.15087 | -0.19045 | 217 ft | 14 kts | 258° |
| 2026-05-05 18:26 | 51.15078 | -0.19111 | 214 ft | 10 kts | 258° |
| 2026-05-05 18:27 | 51.15069 | -0.19173 | 213 ft | 10 kts | 256° |
| 2026-05-05 18:27 | 51.15054 | -0.19295 | 218 ft | 12 kts | 258° |
| 2026-05-05 18:27 | 51.15036 | -0.19427 | 214 ft | 13 kts | 258° |
| 2026-05-05 18:28 | 51.14983 | -0.19797 | 216 ft | 21 kts | 257° |
| 2026-05-05 18:28 | 51.14950 | -0.20038 | 213 ft | 23 kts | 262° |
| 2026-05-05 18:28 | 51.14916 | -0.20293 | 209 ft | 24 kts | 257° |
| 2026-05-05 18:29 | 51.14879 | -0.20551 | 215 ft | 24 kts | 257° |
| 2026-05-05 18:29 | 51.14845 | -0.20808 | 214 ft | 24 kts | 257° |
| 2026-05-05 18:29 | 51.14811 | -0.21059 | 211 ft | 23 kts | 257° |
| 2026-05-05 18:29 | 51.14768 | -0.21308 | 212 ft | 20 kts | 256° |
| 2026-05-05 18:30 | 51.14673 | -0.21367 | 211 ft | 16 kts | 152° |
| 2026-05-05 18:30 | 51.14623 | -0.21330 | 217 ft | 0 kts | 162° |
| 2026-05-05 18:30 | 51.14600 | -0.21317 | 216 ft | 9 kts | 156° |
| 2026-05-05 18:31 | 51.14529 | -0.21217 | 219 ft | 18 kts | 117° |
| 2026-05-05 18:31 | 51.14532 | -0.21036 | 215 ft | 17 kts | 78° |
| 2026-05-05 18:31 | 51.14585 | -0.20655 | 218 ft | 62 kts | 77° |
| 2026-05-05 18:31 | 51.14720 | -0.19678 | 217 ft | 118 kts | 77° |
| 2026-05-05 18:32 | 51.14933 | -0.18138 | 272 ft | 161 kts | 78° |
| 2026-05-05 18:32 | 51.15187 | -0.16243 | 585 ft | 184 kts | 77° |
| 2026-05-05 18:32 | 51.15459 | -0.14329 | 1550 ft | 170 kts | 76° |
| 2026-05-05 18:32 | 51.15726 | -0.12447 | 1999 ft | 182 kts | 76° |
| 2026-05-05 18:33 | 51.16020 | -0.10355 | 2228 ft | 205 kts | 76° |
| 2026-05-05 18:33 | 51.16347 | -0.08008 | 2449 ft | 228 kts | 76° |
| 2026-05-05 18:33 | 51.16697 | -0.05467 | 2821 ft | 240 kts | 77° |
| 2026-05-05 18:33 | 51.16892 | -0.02762 | 3217 ft | 253 kts | 86° |
| 2026-05-05 18:34 | 51.16878 | 0.00084 | 3849 ft | 260 kts | 88° |
| 2026-05-05 18:34 | 51.16819 | 0.02983 | 4584 ft | 262 kts | 89° |
| 2026-05-05 18:34 | 51.16759 | 0.05862 | 5300 ft | 265 kts | 89° |
| 2026-05-05 18:34 | 51.16699 | 0.08865 | 6025 ft | 269 kts | 88° |
| 2026-05-05 18:35 | 51.16642 | 0.11815 | 6748 ft | 271 kts | 89° |
| 2026-05-05 18:35 | 51.16592 | 0.14834 | 7464 ft | 274 kts | 88° |
| 2026-05-05 18:35 | 51.16583 | 0.17896 | 8187 ft | 278 kts | 87° |
| 2026-05-05 18:35 | 51.16726 | 0.20978 | 8867 ft | 280 kts | 76° |
| 2026-05-05 18:36 | 51.17411 | 0.23871 | 9590 ft | 281 kts | 55° |
| 2026-05-05 18:36 | 51.18718 | 0.26191 | 10240 ft | 284 kts | 38° |
| 2026-05-05 18:36 | 51.20364 | 0.28073 | 10536 ft | 300 kts | 30° |
| 2026-05-05 18:36 | 51.22226 | 0.29702 | 10767 ft | 317 kts | 25° |
| 2026-05-05 18:37 | 51.24270 | 0.31267 | 10994 ft | 334 kts | 24° |
| 2026-05-05 18:37 | 51.26428 | 0.32870 | 11273 ft | 348 kts | 24° |
| 2026-05-05 18:37 | 51.28637 | 0.34546 | 11821 ft | 353 kts | 25° |
| 2026-05-05 18:37 | 51.30859 | 0.36287 | 12361 ft | 358 kts | 26° |
| 2026-05-05 18:38 | 51.33068 | 0.38067 | 12849 ft | 361 kts | 27° |
| 2026-05-05 18:38 | 51.35336 | 0.39931 | 13425 ft | 366 kts | 27° |
| 2026-05-05 18:38 | 51.37586 | 0.41799 | 13950 ft | 370 kts | 27° |
| 2026-05-05 18:38 | 51.39888 | 0.43720 | 14555 ft | 372 kts | 27° |
| 2026-05-05 18:39 | 51.42154 | 0.45614 | 15098 ft | 375 kts | 27° |
| 2026-05-05 18:39 | 51.44437 | 0.47523 | 15699 ft | 376 kts | 27° |
| 2026-05-05 18:39 | 51.46768 | 0.49471 | 16245 ft | 379 kts | 27° |
| 2026-05-05 18:39 | 51.49112 | 0.51430 | 16735 ft | 381 kts | 27° |
| 2026-05-05 18:40 | 51.51463 | 0.53397 | 16930 ft | 381 kts | 27° |
| 2026-05-05 18:40 | 51.53823 | 0.55372 | 16939 ft | 382 kts | 27° |
| 2026-05-05 18:40 | 51.55104 | 0.56445 | 16937 ft | 382 kts | 27° |
| 2026-05-05 18:40 | 51.57336 | 0.58317 | 16937 ft | 382 kts | 27° |
| 2026-05-05 18:41 | 51.59700 | 0.60303 | 16939 ft | 384 kts | 27° |
| 2026-05-05 18:41 | 51.62072 | 0.62297 | 16938 ft | 385 kts | 27° |
| 2026-05-05 18:41 | 51.64443 | 0.64292 | 16937 ft | 385 kts | 27° |
| 2026-05-05 18:41 | 51.66818 | 0.66293 | 17009 ft | 386 kts | 27° |
| 2026-05-05 18:42 | 51.69181 | 0.68287 | 17434 ft | 389 kts | 27° |
| 2026-05-05 18:42 | 51.71610 | 0.70338 | 18080 ft | 389 kts | 27° |
| 2026-05-05 18:42 | 51.74019 | 0.72374 | 18543 ft | 392 kts | 27° |
| 2026-05-05 18:42 | 51.76407 | 0.74395 | 19000 ft | 395 kts | 27° |
| 2026-05-05 18:43 | 51.78885 | 0.76495 | 19382 ft | 399 kts | 27° |
| 2026-05-05 18:43 | 51.81315 | 0.78694 | 19828 ft | 402 kts | 33° |
| 2026-05-05 18:43 | 51.83563 | 0.81375 | 20045 ft | 411 kts | 37° |
| 2026-05-05 18:43 | 51.85808 | 0.84368 | 20416 ft | 415 kts | 39° |
| 2026-05-05 18:44 | 51.87949 | 0.87410 | 20867 ft | 416 kts | 41° |
| 2026-05-05 18:44 | 51.90136 | 0.90612 | 21285 ft | 420 kts | 41° |
| 2026-05-05 18:44 | 51.92269 | 0.93771 | 21688 ft | 422 kts | 41° |
| 2026-05-05 18:44 | 51.94465 | 0.97024 | 22079 ft | 425 kts | 41° |
| 2026-05-05 18:45 | 51.96651 | 1.00249 | 22590 ft | 424 kts | 42° |
| 2026-05-05 18:45 | 51.98838 | 1.03465 | 23046 ft | 425 kts | 42° |
| 2026-05-05 18:45 | 52.01042 | 1.06697 | 23385 ft | 429 kts | 41° |
| 2026-05-05 18:45 | 52.03265 | 1.09957 | 23689 ft | 432 kts | 41° |
| 2026-05-05 18:46 | 52.05580 | 1.13110 | 23933 ft | 437 kts | 38° |
| 2026-05-05 18:46 | 52.07989 | 1.16168 | 24107 ft | 443 kts | 37° |
| 2026-05-05 18:46 | 52.10448 | 1.19213 | 24457 ft | 444 kts | 36° |
| 2026-05-05 18:46 | 52.12898 | 1.22277 | 24772 ft | 446 kts | 38° |
| 2026-05-05 18:47 | 52.15293 | 1.25416 | 25095 ft | 448 kts | 39° |
| 2026-05-05 18:47 | 52.17727 | 1.28702 | 25405 ft | 450 kts | 39° |
| 2026-05-05 18:47 | 52.20134 | 1.31996 | 25714 ft | 453 kts | 40° |
| 2026-05-05 18:47 | 52.22554 | 1.35321 | 26000 ft | 456 kts | 40° |
| 2026-05-05 18:48 | 52.24981 | 1.38655 | 26289 ft | 458 kts | 40° |
| 2026-05-05 18:48 | 52.27403 | 1.41978 | 26568 ft | 461 kts | 40° |
| 2026-05-05 18:48 | 52.29870 | 1.45357 | 26813 ft | 465 kts | 39° |
| 2026-05-05 18:48 | 52.32352 | 1.48769 | 27078 ft | 468 kts | 41° |
| 2026-05-05 18:49 | 52.34720 | 1.52448 | 27374 ft | 470 kts | 45° |
| 2026-05-05 18:49 | 52.37040 | 1.56218 | 27658 ft | 472 kts | 45° |
| 2026-05-05 18:49 | 52.39356 | 1.60059 | 27933 ft | 474 kts | 46° |
| 2026-05-05 18:49 | 52.41663 | 1.63935 | 28216 ft | 477 kts | 46° |
| 2026-05-05 18:50 | 52.43977 | 1.67846 | 28499 ft | 479 kts | 46° |
| 2026-05-05 18:50 | 52.46303 | 1.71788 | 28737 ft | 482 kts | 46° |
| 2026-05-05 18:50 | 52.48641 | 1.75752 | 29017 ft | 484 kts | 46° |
| 2026-05-05 18:50 | 52.50985 | 1.79728 | 29275 ft | 486 kts | 46° |
| 2026-05-05 18:51 | 52.53344 | 1.83733 | 29558 ft | 488 kts | 46° |
| 2026-05-05 18:51 | 52.55707 | 1.87748 | 29822 ft | 490 kts | 46° |
| 2026-05-05 18:51 | 52.58082 | 1.91787 | 30085 ft | 493 kts | 47° |
| 2026-05-05 18:51 | 52.60465 | 1.95846 | 30287 ft | 494 kts | 47° |
| 2026-05-05 18:52 | 52.62854 | 1.99924 | 30590 ft | 494 kts | 47° |
| 2026-05-05 18:52 | 52.65239 | 2.03999 | 30886 ft | 494 kts | 47° |
| 2026-05-05 18:52 | 52.67627 | 2.08088 | 31192 ft | 494 kts | 47° |
| 2026-05-05 18:52 | 52.69979 | 2.12121 | 31513 ft | 493 kts | 47° |
| 2026-05-05 18:53 | 52.72350 | 2.16195 | 31845 ft | 492 kts | 47° |
| 2026-05-05 18:53 | 52.74727 | 2.20285 | 32157 ft | 492 kts | 46° |
| 2026-05-05 18:53 | 52.77094 | 2.24367 | 32432 ft | 492 kts | 47° |
| 2026-05-05 18:53 | 52.79461 | 2.28454 | 32711 ft | 492 kts | 47° |
| 2026-05-05 18:54 | 52.81824 | 2.32542 | 33008 ft | 491 kts | 47° |
| 2026-05-05 18:54 | 52.84177 | 2.36619 | 33295 ft | 491 kts | 47° |
| 2026-05-05 18:54 | 52.86533 | 2.40707 | 33573 ft | 490 kts | 47° |
| 2026-05-05 18:54 | 52.88885 | 2.44797 | 33850 ft | 490 kts | 47° |
| 2026-05-05 18:55 | 52.91226 | 2.48874 | 34105 ft | 489 kts | 47° |
| 2026-05-05 18:55 | 52.93576 | 2.52975 | 34292 ft | 489 kts | 47° |
| 2026-05-05 18:55 | 52.95924 | 2.57058 | 34433 ft | 491 kts | 45° |
| 2026-05-05 18:55 | 52.98497 | 2.60807 | 34565 ft | 494 kts | 36° |
| 2026-05-05 18:56 | 53.01380 | 2.63906 | 34805 ft | 492 kts | 28° |
| 2026-05-05 18:56 | 53.04387 | 2.66647 | 35037 ft | 491 kts | 27° |
| 2026-05-05 18:56 | 53.07415 | 2.69250 | 35247 ft | 491 kts | 26° |
| 2026-05-05 18:56 | 53.10436 | 2.71763 | 35436 ft | 491 kts | 25° |
| 2026-05-05 18:57 | 53.13495 | 2.74276 | 35628 ft | 491 kts | 25° |
| 2026-05-05 18:57 | 53.16554 | 2.76787 | 35806 ft | 490 kts | 25° |
| 2026-05-05 18:57 | 53.19614 | 2.79309 | 35990 ft | 490 kts | 25° |
| 2026-05-05 18:57 | 53.22675 | 2.81848 | 36189 ft | 490 kts | 25° |
| 2026-05-05 18:58 | 53.25725 | 2.84393 | 36399 ft | 489 kts | 25° |
| 2026-05-05 18:58 | 53.28763 | 2.86927 | 36599 ft | 488 kts | 24° |
| 2026-05-05 18:58 | 53.31824 | 2.89398 | 36756 ft | 488 kts | 24° |
| 2026-05-05 18:58 | 53.34898 | 2.91816 | 36918 ft | 488 kts | 23° |
| 2026-05-05 18:59 | 53.37972 | 2.94208 | 37066 ft | 488 kts | 23° |
| 2026-05-05 18:59 | 53.41058 | 2.96606 | 37233 ft | 488 kts | 23° |
| 2026-05-05 18:59 | 53.43139 | 2.98226 | 37341 ft | 488 kts | 23° |
| 2026-05-05 18:59 | 53.46186 | 3.00608 | 37494 ft | 488 kts | 23° |
| 2026-05-05 19:00 | 53.49265 | 3.03025 | 37640 ft | 488 kts | 23° |
| 2026-05-05 19:00 | 53.52333 | 3.05442 | 37781 ft | 488 kts | 23° |
| 2026-05-05 19:00 | 53.55411 | 3.07876 | 37912 ft | 488 kts | 23° |
| 2026-05-05 19:00 | 53.58481 | 3.10307 | 38055 ft | 488 kts | 23° |
| 2026-05-05 19:01 | 53.64642 | 3.15200 | 38159 ft | 491 kts | 24° |
| 2026-05-05 19:01 | 53.67733 | 3.17661 | 38275 ft | 491 kts | 24° |
| 2026-05-05 19:01 | 53.70825 | 3.20126 | 38489 ft | 490 kts | 23° |
| 2026-05-05 19:02 | 53.73895 | 3.22579 | 38726 ft | 486 kts | 23° |
| 2026-05-05 19:02 | 53.76945 | 3.25020 | 38857 ft | 485 kts | 23° |
| 2026-05-05 19:02 | 53.83062 | 3.29927 | 38993 ft | 486 kts | 23° |
| 2026-05-05 19:03 | 53.89165 | 3.34849 | 39157 ft | 486 kts | 24° |
| 2026-05-05 19:03 | 53.95275 | 3.39789 | 39310 ft | 486 kts | 24° |
| 2026-05-05 19:04 | 54.01397 | 3.44749 | 39400 ft | 488 kts | 24° |
| 2026-05-05 19:04 | 54.07531 | 3.49734 | 39508 ft | 489 kts | 24° |
| 2026-05-05 19:05 | 54.13672 | 3.54741 | 39609 ft | 490 kts | 24° |
| 2026-05-05 19:05 | 54.19827 | 3.59783 | 39722 ft | 491 kts | 24° |
| 2026-05-05 19:06 | 54.25951 | 3.64810 | 39768 ft | 493 kts | 24° |
| 2026-05-05 19:06 | 54.32101 | 3.69873 | 39870 ft | 494 kts | 24° |
| 2026-05-05 19:07 | 54.38221 | 3.74926 | 39945 ft | 495 kts | 24° |
| 2026-05-05 19:07 | 54.44431 | 3.80070 | 40042 ft | 496 kts | 24° |
| 2026-05-05 19:08 | 54.50647 | 3.85238 | 40115 ft | 497 kts | 24° |
| 2026-05-05 19:08 | 54.56883 | 3.90442 | 40208 ft | 498 kts | 24° |
| 2026-05-05 19:09 | 54.63085 | 3.95632 | 40261 ft | 499 kts | 24° |
| 2026-05-05 19:09 | 54.69335 | 4.00873 | 40465 ft | 497 kts | 23° |
| 2026-05-05 19:10 | 54.72428 | 4.03470 | 40720 ft | 491 kts | 23° |
| 2026-05-05 19:10 | 54.75486 | 4.06043 | 40926 ft | 488 kts | 23° |
| 2026-05-05 19:10 | 54.81601 | 4.11205 | 40963 ft | 489 kts | 23° |
| 2026-05-05 19:11 | 54.87329 | 4.17599 | 40973 ft | 494 kts | 40° |
| 2026-05-05 19:11 | 54.92201 | 4.26034 | 40955 ft | 496 kts | 45° |
| 2026-05-05 19:12 | 54.96889 | 4.34906 | 40963 ft | 499 kts | 46° |
| 2026-05-05 19:12 | 55.01551 | 4.43886 | 40961 ft | 500 kts | 46° |
| 2026-05-05 19:13 | 55.06237 | 4.52890 | 40957 ft | 502 kts | 46° |
| 2026-05-05 19:13 | 55.10948 | 4.61927 | 40960 ft | 504 kts | 46° |
| 2026-05-05 19:14 | 55.15671 | 4.71004 | 40962 ft | 506 kts | 46° |
| 2026-05-05 19:14 | 55.20403 | 4.80140 | 40964 ft | 508 kts | 46° |
| 2026-05-05 19:15 | 55.25150 | 4.89342 | 40966 ft | 510 kts | 46° |
| 2026-05-05 19:15 | 55.29882 | 4.98639 | 40961 ft | 512 kts | 51° |
| 2026-05-05 19:16 | 55.34107 | 5.08751 | 40968 ft | 514 kts | 53° |
| 2026-05-05 19:16 | 55.38218 | 5.19078 | 40968 ft | 516 kts | 54° |
| 2026-05-05 19:17 | 55.42300 | 5.29485 | 40980 ft | 517 kts | 54° |
| 2026-05-05 19:17 | 55.46386 | 5.39928 | 40968 ft | 518 kts | 54° |
| 2026-05-05 19:18 | 55.50471 | 5.50391 | 40975 ft | 517 kts | 54° |
| 2026-05-05 19:18 | 55.54513 | 5.60794 | 40969 ft | 517 kts | 54° |
| 2026-05-05 19:19 | 55.58578 | 5.71291 | 40975 ft | 518 kts | 54° |
| 2026-05-05 19:19 | 55.62637 | 5.81813 | 40977 ft | 518 kts | 54° |
| 2026-05-05 19:20 | 55.66690 | 5.92361 | 40977 ft | 518 kts | 54° |
| 2026-05-05 19:20 | 55.70765 | 6.03013 | 40977 ft | 519 kts | 54° |
| 2026-05-05 19:21 | 55.74784 | 6.13563 | 40982 ft | 519 kts | 54° |
| 2026-05-05 19:21 | 55.78816 | 6.24186 | 40985 ft | 519 kts | 54° |
| 2026-05-05 19:22 | 55.82849 | 6.34862 | 40983 ft | 519 kts | 55° |
| 2026-05-05 19:22 | 55.86869 | 6.45556 | 40993 ft | 519 kts | 55° |
| 2026-05-05 19:23 | 55.88865 | 6.50883 | 40827 ft | 517 kts | 55° |
| 2026-05-05 19:23 | 55.90858 | 6.56219 | 40589 ft | 517 kts | 55° |
| 2026-05-05 19:23 | 55.94822 | 6.66871 | 40492 ft | 515 kts | 55° |
| 2026-05-05 19:24 | 55.98777 | 6.77534 | 40492 ft | 515 kts | 55° |
| 2026-05-05 19:24 | 56.02725 | 6.88218 | 40490 ft | 515 kts | 55° |
| 2026-05-05 19:25 | 56.06663 | 6.98922 | 40488 ft | 515 kts | 55° |
| 2026-05-05 19:25 | 56.08631 | 7.04289 | 40356 ft | 515 kts | 56° |
| 2026-05-05 19:25 | 56.10590 | 7.09643 | 40155 ft | 514 kts | 55° |
| 2026-05-05 19:26 | 56.12543 | 7.14995 | 39933 ft | 512 kts | 56° |
| 2026-05-05 19:26 | 56.14489 | 7.20338 | 39692 ft | 510 kts | 56° |
| 2026-05-05 19:26 | 56.16420 | 7.25654 | 39459 ft | 508 kts | 56° |
| 2026-05-05 19:26 | 56.18341 | 7.30952 | 39240 ft | 506 kts | 56° |
| 2026-05-05 19:27 | 56.20254 | 7.36241 | 39017 ft | 504 kts | 56° |
| 2026-05-05 19:27 | 56.22161 | 7.41523 | 38798 ft | 503 kts | 56° |
| 2026-05-05 19:27 | 56.24065 | 7.46807 | 38540 ft | 504 kts | 56° |
| 2026-05-05 19:27 | 56.25968 | 7.52100 | 38270 ft | 505 kts | 56° |
| 2026-05-05 19:28 | 56.27875 | 7.57414 | 37979 ft | 506 kts | 56° |
| 2026-05-05 19:28 | 56.29783 | 7.62743 | 37692 ft | 506 kts | 56° |
| 2026-05-05 19:28 | 56.31686 | 7.68072 | 37449 ft | 506 kts | 56° |
| 2026-05-05 19:28 | 56.33588 | 7.73409 | 37196 ft | 507 kts | 56° |
| 2026-05-05 19:29 | 56.35494 | 7.78770 | 36916 ft | 507 kts | 56° |
| 2026-05-05 19:29 | 56.37376 | 7.84073 | 36653 ft | 508 kts | 56° |
| 2026-05-05 19:29 | 56.39280 | 7.89451 | 36398 ft | 508 kts | 56° |
| 2026-05-05 19:29 | 56.41205 | 7.94902 | 36133 ft | 509 kts | 56° |
| 2026-05-05 19:30 | 56.43107 | 8.00300 | 35867 ft | 509 kts | 56° |
| 2026-05-05 19:30 | 56.45006 | 8.05700 | 35628 ft | 510 kts | 56° |
| 2026-05-05 19:30 | 56.46884 | 8.11050 | 35380 ft | 510 kts | 56° |
| 2026-05-05 19:30 | 56.48808 | 8.16545 | 35133 ft | 511 kts | 56° |
| 2026-05-05 19:31 | 56.50713 | 8.22000 | 34884 ft | 512 kts | 56° |
| 2026-05-05 19:31 | 56.52586 | 8.27375 | 34646 ft | 512 kts | 56° |
| 2026-05-05 19:31 | 56.54484 | 8.32834 | 34397 ft | 512 kts | 56° |
| 2026-05-05 19:31 | 56.56383 | 8.38308 | 34192 ft | 513 kts | 56° |
| 2026-05-05 19:32 | 56.58280 | 8.43787 | 33949 ft | 514 kts | 56° |
| 2026-05-05 19:32 | 56.60183 | 8.49296 | 33671 ft | 514 kts | 56° |
| 2026-05-05 19:32 | 56.62083 | 8.54810 | 33395 ft | 515 kts | 56° |
| 2026-05-05 19:32 | 56.63981 | 8.60333 | 33119 ft | 515 kts | 56° |
| 2026-05-05 19:33 | 56.65875 | 8.65854 | 32850 ft | 516 kts | 56° |
| 2026-05-05 19:33 | 56.67769 | 8.71389 | 32575 ft | 516 kts | 56° |
| 2026-05-05 19:33 | 56.69665 | 8.76943 | 32293 ft | 517 kts | 56° |
| 2026-05-05 19:33 | 56.71562 | 8.82511 | 32042 ft | 518 kts | 56° |
| 2026-05-05 19:34 | 56.73458 | 8.88092 | 31790 ft | 518 kts | 56° |
| 2026-05-05 19:34 | 56.75353 | 8.93680 | 31523 ft | 519 kts | 56° |
| 2026-05-05 19:34 | 56.77249 | 8.99285 | 31260 ft | 519 kts | 56° |
| 2026-05-05 19:35 | 56.81034 | 9.10516 | 30786 ft | 521 kts | 56° |
| 2026-05-05 19:35 | 56.82932 | 9.16166 | 30534 ft | 522 kts | 56° |
| 2026-05-05 19:35 | 56.84830 | 9.21831 | 30289 ft | 522 kts | 56° |
| 2026-05-05 19:35 | 56.86719 | 9.27483 | 30049 ft | 521 kts | 57° |
| 2026-05-05 19:36 | 56.88601 | 9.33130 | 29986 ft | 520 kts | 57° |
| 2026-05-05 19:36 | 56.92353 | 9.44423 | 29961 ft | 519 kts | 57° |
| 2026-05-05 19:37 | 56.96090 | 9.55721 | 29989 ft | 518 kts | 57° |
| 2026-05-05 19:37 | 56.99814 | 9.67037 | 29993 ft | 518 kts | 57° |
| 2026-05-05 19:38 | 57.03533 | 9.78385 | 29992 ft | 520 kts | 57° |
| 2026-05-05 19:38 | 57.07231 | 9.89719 | 29990 ft | 520 kts | 57° |
| 2026-05-05 19:39 | 57.10779 | 10.01322 | 30014 ft | 523 kts | 64° |
| 2026-05-05 19:39 | 57.13824 | 10.13653 | 29322 ft | 535 kts | 65° |
| 2026-05-05 19:39 | 57.15327 | 10.19973 | 28366 ft | 539 kts | 65° |
| 2026-05-05 19:40 | 57.16800 | 10.26274 | 28018 ft | 530 kts | 65° |
| 2026-05-05 19:40 | 57.18241 | 10.32464 | 27799 ft | 519 kts | 65° |
| 2026-05-05 19:40 | 57.19651 | 10.38503 | 27535 ft | 509 kts | 65° |
| 2026-05-05 19:40 | 57.20579 | 10.42472 | 27272 ft | 505 kts | 65° |
| 2026-05-05 19:41 | 57.21961 | 10.48385 | 26909 ft | 499 kts | 65° |
| 2026-05-05 19:41 | 57.23309 | 10.54172 | 26616 ft | 483 kts | 65° |
| 2026-05-05 19:41 | 57.24613 | 10.59793 | 26301 ft | 465 kts | 65° |
| 2026-05-05 19:41 | 57.25864 | 10.65200 | 25823 ft | 452 kts | 65° |
| 2026-05-05 19:42 | 57.27089 | 10.70506 | 25196 ft | 445 kts | 65° |
| 2026-05-05 19:42 | 57.28299 | 10.75751 | 24524 ft | 440 kts | 65° |
| 2026-05-05 19:42 | 57.29490 | 10.80924 | 23860 ft | 436 kts | 65° |
| 2026-05-05 19:42 | 57.30667 | 10.86051 | 23237 ft | 432 kts | 65° |
| 2026-05-05 19:43 | 57.31833 | 10.91142 | 22591 ft | 427 kts | 65° |
| 2026-05-05 19:43 | 57.32985 | 10.96185 | 21958 ft | 423 kts | 65° |
| 2026-05-05 19:43 | 57.34120 | 11.01179 | 21330 ft | 419 kts | 65° |
| 2026-05-05 19:43 | 57.35234 | 11.06115 | 20711 ft | 414 kts | 65° |
| 2026-05-05 19:44 | 57.36341 | 11.11021 | 20138 ft | 410 kts | 65° |
| 2026-05-05 19:44 | 57.37435 | 11.15879 | 19543 ft | 406 kts | 65° |
| 2026-05-05 19:44 | 57.38518 | 11.20685 | 18960 ft | 402 kts | 65° |
| 2026-05-05 19:44 | 57.39588 | 11.25448 | 18393 ft | 399 kts | 65° |
| 2026-05-05 19:45 | 57.40646 | 11.30163 | 17773 ft | 395 kts | 65° |
| 2026-05-05 19:45 | 57.41685 | 11.34810 | 17346 ft | 384 kts | 64° |
| 2026-05-05 19:45 | 57.42697 | 11.39346 | 16730 ft | 378 kts | 64° |
| 2026-05-05 19:45 | 57.43701 | 11.43848 | 16090 ft | 375 kts | 64° |
| 2026-05-05 19:46 | 57.44693 | 11.48305 | 15678 ft | 373 kts | 65° |
| 2026-05-05 19:46 | 57.45679 | 11.52744 | 15369 ft | 370 kts | 65° |
| 2026-05-05 19:46 | 57.46654 | 11.57141 | 15024 ft | 367 kts | 64° |
| 2026-05-05 19:46 | 57.47627 | 11.61530 | 14679 ft | 365 kts | 64° |
| 2026-05-05 19:47 | 57.48588 | 11.65876 | 14337 ft | 363 kts | 64° |
| 2026-05-05 19:47 | 57.49545 | 11.70214 | 13994 ft | 361 kts | 65° |
| 2026-05-05 19:47 | 57.50494 | 11.74529 | 13637 ft | 359 kts | 65° |
| 2026-05-05 19:47 | 57.51423 | 11.78762 | 13280 ft | 356 kts | 65° |
| 2026-05-05 19:48 | 57.52352 | 11.83004 | 12952 ft | 352 kts | 65° |
| 2026-05-05 19:48 | 57.53260 | 11.87158 | 12625 ft | 348 kts | 65° |
| 2026-05-05 19:48 | 57.54163 | 11.91298 | 12133 ft | 342 kts | 65° |
| 2026-05-05 19:48 | 57.55109 | 11.95341 | 11538 ft | 336 kts | 57° |
| 2026-05-05 19:49 | 57.56583 | 11.98524 | 10941 ft | 320 kts | 30° |
| 2026-05-05 19:49 | 57.58449 | 12.00634 | 10365 ft | 311 kts | 23° |
| 2026-05-05 19:49 | 57.60349 | 12.02477 | 9960 ft | 300 kts | 22° |
| 2026-05-05 19:49 | 57.62161 | 12.04213 | 9660 ft | 287 kts | 22° |
| 2026-05-05 19:50 | 57.63914 | 12.05904 | 9221 ft | 280 kts | 22° |
| 2026-05-05 19:50 | 57.65627 | 12.07565 | 8648 ft | 274 kts | 22° |
| 2026-05-05 19:50 | 57.67310 | 12.09202 | 8054 ft | 272 kts | 23° |
| 2026-05-05 19:50 | 57.68977 | 12.10827 | 7413 ft | 269 kts | 24° |
| 2026-05-05 19:51 | 57.70616 | 12.12430 | 6844 ft | 263 kts | 25° |
| 2026-05-05 19:51 | 57.72216 | 12.14002 | 6423 ft | 252 kts | 25° |
| 2026-05-05 19:51 | 57.73725 | 12.15489 | 6080 ft | 240 kts | 26° |
| 2026-05-05 19:51 | 57.75185 | 12.16928 | 5609 ft | 235 kts | 25° |
| 2026-05-05 19:52 | 57.76606 | 12.18327 | 5154 ft | 232 kts | 26° |
| 2026-05-05 19:52 | 57.78050 | 12.19750 | 4936 ft | 232 kts | 27° |
| 2026-05-05 19:52 | 57.79485 | 12.21166 | 4393 ft | 235 kts | 27° |
| 2026-05-05 19:52 | 57.80887 | 12.22551 | 4048 ft | 224 kts | 27° |
| 2026-05-05 19:53 | 57.82221 | 12.23874 | 3998 ft | 212 kts | 27° |
| 2026-05-05 19:53 | 57.83538 | 12.25179 | 3884 ft | 211 kts | 27° |
| 2026-05-05 19:53 | 57.84827 | 12.26463 | 3418 ft | 212 kts | 28° |
| 2026-05-05 19:53 | 57.85986 | 12.28104 | 3153 ft | 205 kts | 46° |
| 2026-05-05 19:54 | 57.86686 | 12.30326 | 2938 ft | 195 kts | 71° |
| 2026-05-05 19:54 | 57.86922 | 12.32820 | 2610 ft | 196 kts | 84° |
| 2026-05-05 19:54 | 57.87003 | 12.35413 | 2504 ft | 197 kts | 87° |
| 2026-05-05 19:54 | 57.86839 | 12.37932 | 2501 ft | 194 kts | 107° |
| 2026-05-05 19:55 | 57.86143 | 12.40044 | 2501 ft | 189 kts | 136° |
| 2026-05-05 19:55 | 57.85019 | 12.41248 | 2503 ft | 187 kts | 165° |
| 2026-05-05 19:55 | 57.83735 | 12.41601 | 2504 ft | 187 kts | 176° |
| 2026-05-05 19:55 | 57.82472 | 12.41713 | 2492 ft | 174 kts | 180° |
| 2026-05-05 19:56 | 57.81332 | 12.41460 | 2507 ft | 158 kts | 196° |
| 2026-05-05 19:56 | 57.80336 | 12.40765 | 2506 ft | 150 kts | 205° |
| 2026-05-05 19:56 | 57.79392 | 12.39934 | 2503 ft | 149 kts | 206° |
| 2026-05-05 19:56 | 57.78459 | 12.39081 | 2499 ft | 149 kts | 207° |
| 2026-05-05 19:57 | 57.77523 | 12.38227 | 2496 ft | 150 kts | 206° |
| 2026-05-05 19:57 | 57.76587 | 12.37382 | 2495 ft | 150 kts | 206° |
| 2026-05-05 19:57 | 57.75643 | 12.36528 | 2369 ft | 151 kts | 206° |
| 2026-05-05 19:57 | 57.74706 | 12.35672 | 2150 ft | 150 kts | 207° |
| 2026-05-05 19:58 | 57.73773 | 12.34816 | 1934 ft | 148 kts | 207° |
| 2026-05-05 19:58 | 57.72849 | 12.33971 | 1743 ft | 147 kts | 207° |
| 2026-05-05 19:58 | 57.71933 | 12.33134 | 1507 ft | 146 kts | 207° |
| 2026-05-05 19:58 | 57.71022 | 12.32286 | 1296 ft | 145 kts | 208° |
| 2026-05-05 19:59 | 57.70111 | 12.31448 | 1047 ft | 145 kts | 206° |
| 2026-05-05 19:59 | 57.69214 | 12.30658 | 842 ft | 144 kts | 207° |
| 2026-05-05 19:59 | 57.68321 | 12.29832 | 725 ft | 143 kts | 207° |
| 2026-05-05 19:59 | 57.67420 | 12.29013 | 572 ft | 144 kts | 206° |
| 2026-05-05 20:00 | 57.66601 | 12.28265 | 527 ft | 102 kts | 206° |
| 2026-05-05 20:00 | 57.66217 | 12.27936 | 519 ft | 31 kts | 188° |
| 2026-05-05 20:00 | 57.66115 | 12.28061 | 521 ft | 11 kts | 114° |
| 2026-05-05 20:00 | 57.66114 | 12.28068 | 521 ft | 0 kts | 112° |
| 2026-05-05 20:02 | 57.66114 | 12.28069 | 521 ft | 0 kts | 111° |
| 2026-05-05 20:03 | 57.66111 | 12.28087 | 521 ft | 4 kts | 105° |
| 2026-05-05 20:03 | 57.66120 | 12.28152 | 522 ft | 6 kts | 58° |
| 2026-05-05 20:03 | 57.66159 | 12.28210 | 522 ft | 8 kts | 31° |
| 2026-05-05 20:03 | 57.66222 | 12.28272 | 523 ft | 12 kts | 25° |
| 2026-05-05 20:04 | 57.66310 | 12.28341 | 524 ft | 15 kts | 30° |
| 2026-05-05 20:04 | 57.66408 | 12.28440 | 525 ft | 18 kts | 26° |
| 2026-05-05 20:04 | 57.66526 | 12.28548 | 526 ft | 19 kts | 25° |
| 2026-05-05 20:04 | 57.66630 | 12.28641 | 527 ft | 13 kts | 31° |
| 2026-05-05 20:05 | 57.66660 | 12.28771 | 528 ft | 11 kts | 102° |
| 2026-05-05 20:05 | 57.66628 | 12.28893 | 528 ft | 10 kts | 117° |
| 2026-05-05 20:05 | 57.66585 | 12.29001 | 528 ft | 10 kts | 123° |
| 2026-05-05 20:05 | 57.66558 | 12.29098 | 528 ft | 0 kts | 117° |
| 2026-05-05 20:06 | 57.66556 | 12.29104 | 528 ft | 1 kts | 117° |
| 2026-05-05 20:06 | 57.66553 | 12.29116 | 528 ft | 1 kts | 116° |
| 2026-05-05 20:06 | 57.66549 | 12.29130 | 528 ft | 0 kts | 116° |